Leavenworth, WA (98826)

6:56 PM PDT on August 31, 2016 (GMT -0700)
Ski View Condos | | Change Station

Elev 1247 ft 47.61 °N, 120.66 °W | Updated 4 seconds ago

Overcast
Overcast
70.3 °F
Feels Like 77 °F
N
0.0
Wind Variable Wind from WNW
Gusts 0.0 mph

Today
High -- | Low -- °F
--% Chance of Precip.
Yesterday
High -- | Low -- °F
Precip. -- in
Pressure 29.79 in
Visibility 10.0 miles
Clouds Overcast 8500 ft
Heat Index 77 °F
Dew Point 52 °F
Humidity 52%
Rainfall 0.00 in
Snow Depth Not available.
6:20 AM 7:43 PM
Waning Crescent, 0% visible
METAR KEAT 010055Z AUTO 29018KT 10SM OVC085 26/09 A2981 RMK AO2 SLP088 T02610089
Pressure 29.79 in
Visibility 10.0 miles
Clouds Overcast 8500 ft
Heat Index 77 °F
Dew Point 52 °F
Humidity 52%
Rainfall 0.00 in
Snow Depth Not available.
6:20 AM 7:43 PM
Waning Crescent, 0% visible
METAR KEAT 010055Z AUTO 29018KT 10SM OVC085 26/09 A2981 RMK AO2 SLP088 T02610089

10-Day Weather Forecast

Almanac

Astronomy

Aug. 31, 2016 Rise Set
Actual Time
Civil Twilight
Nautical Twilight
Astronomical Twilight
Moon
Length of Visible Light
Length of Day
Tomorrow will be .
, % of the Moon is Illuminated

Today's Extremes

State Highs State Lows

Community

WunderPhotos

Upload Photos

1,936,266 photos uploaded!

WunderBlog® & News

Nearby

Air Quality

  Air Quality AQ Index Pollutant
Not available.

Snow Depth

Station Depth Elevation

Earthquake Activity

City Distance Mag. Time & Date
Minimum magnitude displayed is 2.5.

Coastal Water Temperatures

Place Temperature

Stations

Nearby Weather Stations

Station Location Temp. Windchill Dew Point Humidity Wind Precip. Elev Updated Type
                   

Watches & Warnings

There are currently no watches in effect.